• Join FlightAware (Why Join?)
  • Login
  • US Flag 
12:50PM EDT


 

Airport Tracker/Info


-or-


 

Live Flight TrackerFlight Track Log ✈ C-GEJD ✈ 24-Apr-2013 ✈ KFLL - CYUL

Flight Track Log - Related Links

Times and Time Zones

All times are in EDT time to prevent confusion due to time zone crossing. See the C-GEJD flight status page for this flight to view local times or setup timezone preferences in your user account.

Time Position Orientation Groundspeed Altitude Reporting Facility
EDT Latitude Longitude Course Direction KTS MPH feet Rate Location/Type
10:26PM 26.0728 -80.1411 89° East 154 177 800  Level Miami Center
10:26PM 26.0731 -80.1272 89° East 151 174 1,800 2,460 Climbing Miami Center
10:27PM 26.0742 -80.0742 89° East 175 201 4,100 1,500 Climbing Miami Center
10:29PM 26.1053 -79.9847 69° East 214 246 5,500 1,440 Climbing Miami Center
10:30PM 26.1275 -79.9231 68° East 219 252 7,600 1,980 Climbing Miami Center
10:31PM 26.1522 -79.8494 69° East 224 258 9,400 2,460 Climbing Miami Center
10:32PM 26.1914 -79.7647 63° Northeast 266 306 12,700 3,300 Climbing Miami Center
10:33PM 26.2494 -79.6758 54° Northeast 310 357 16,200 3,660 Climbing Miami Center
10:34PM 26.3097 -79.5869 53° Northeast 356 410 19,900 2,940 Climbing Miami Center
10:35PM 26.3800 -79.5189 41° Northeast 367 422 22,000 2,400 Climbing Miami Center
10:36PM 26.4917 -79.4564 27° Northeast 388 447 24,700 2,400 Climbing Miami Center
10:37PM 26.5844 -79.4097 24° Northeast 400 460 26,800 2,100 Climbing Miami Center
10:38PM 26.6983 -79.3447 27° Northeast 408 470 28,900 1,800 Climbing Miami Center
10:39PM 26.8081 -79.2867 25° Northeast 413 475 30,500 1,500 Climbing Miami Center
10:40PM 26.9197 -79.2261 26° Northeast 421 484 31,900 1,500 Climbing Miami Center
10:41PM 27.0292 -79.1653 26° Northeast 428 493 33,500 1,680 Climbing Miami Center
10:42PM 27.1242 -79.1111 27° Northeast 423 487 35,400 1,620 Climbing Miami Center
10:43PM 27.2317 -79.0525 26° Northeast 432 497 36,800 1,740 Climbing Miami Center
10:44PM 27.3494 -78.9869 26° Northeast 427 491 38,900 1,380 Climbing Miami Center
10:45PM 27.4564 -78.9583 13° North 404 465 39,600 780 Climbing Miami Center
10:46PM 27.5525 -78.9461 North 390 449 40,600 660 Climbing Miami Center
10:47PM 27.6594 -78.9317 North 385 443 41,000 180 Climbing Miami Center
10:48PM 27.7828 -78.9150 North 399 459 41,000  Level Miami Center
10:49PM 27.8686 -78.9025 North 399 459 41,000  Level Miami Center
10:50PM 28.0025 -78.8814 North 399 459 41,000  Level Miami Center
10:51PM 28.1156 -78.8647 North 399 459 41,000  Level Miami Center
10:52PM 28.2283 -78.8478 North 399 459 41,000  Level Miami Center
10:53PM 28.3372 -78.8308 North 399 459 41,000  Level Miami Center
10:54PM 28.4481 -78.8161 North 399 459 41,000  Level Miami Center
10:55PM 28.5589 -78.7969 North 394 453 41,000  Level Miami Center
10:56PM 28.6697 -78.7822 North 399 459 41,000  Level Miami Center
10:57PM 28.7825 -78.7678 North 399 459 41,000  Level Miami Center
10:58PM 28.8914 -78.7481 North 399 459 41,000  Level Miami Center
10:59PM 28.9958 -78.7311 North 410 472 41,000  Level Miami Center
11:00PM 29.1108 -78.7164 North 415 478 41,000  Level Miami Center
11:01PM 29.2197 -78.6967 North 404 465 41,000  Level Miami Center
11:02PM 29.3367 -78.6867 North 404 465 41,000  Level Miami Center
11:03PM 29.4433 -78.6625 11° North 404 465 41,000  Level Miami Center
11:04PM 29.5603 -78.6500 North 409 471 41,000  Level Miami Center
11:05PM 29.6794 -78.6306 North 401 461 41,000  Level Miami Center
11:05PM 29.7128 -78.6197 16° North 400 460 41,000  Level Jacksonville Center
11:06PM 29.8206 -78.6006 North 405 466 41,000  Level Jacksonville Center
11:07PM 29.9369 -78.5833 North 405 466 41,000  Level Jacksonville Center
11:08PM 30.0514 -78.5736 North 411 473 41,000  Level Jacksonville Center
11:09PM 30.1614 -78.5517 10° North 405 466 41,000  Level Jacksonville Center
11:10PM 30.2733 -78.5347 North 405 466 41,000  Level Jacksonville Center
11:11PM 30.3878 -78.5175 North 399 459 41,000  Level Jacksonville Center
11:12PM 30.5039 -78.5025 North 415 478 41,000  Level Jacksonville Center
11:13PM 30.6139 -78.4831 North 409 471 41,000  Level Jacksonville Center
11:14PM 30.7303 -78.4656 North 409 471 41,000  Level Jacksonville Center
11:15PM 30.8467 -78.4478 North 409 471 41,000  Level Jacksonville Center
11:16PM 30.9586 -78.4281 North 409 471 41,000  Level Jacksonville Center
11:17PM 31.0872 -78.4100 North 414 476 41,000  Level Jacksonville Center
11:18PM 31.2014 -78.3922 North 409 471 41,000  Level Jacksonville Center
11:19PM 31.3178 -78.3722 North 415 478 41,000  Level Jacksonville Center
11:20PM 31.4339 -78.3544 North 414 476 41,000  Level Jacksonville Center
11:21PM 31.5503 -78.3364 North 415 478 41,000  Level Jacksonville Center
11:22PM 31.6644 -78.3186 North 415 478 41,000  Level Jacksonville Center
11:23PM 31.7806 -78.2983 North 415 478 41,000  Level Jacksonville Center
11:24PM 31.8967 -78.2803 North 420 483 41,000  Level Jacksonville Center
11:25PM 32.0131 -78.2597 North 427 491 41,000  Level Jacksonville Center
11:26PM 32.1272 -78.2442 North 420 483 41,000  Level Jacksonville Center
11:27PM 32.2472 -78.2158 11° North 425 489 41,000  Level Jacksonville Center
11:28PM 32.3636 -78.2003 North 425 489 41,000  Level Jacksonville Center
11:29PM 32.4817 -78.1817 North 425 489 41,000  Level Jacksonville Center
11:30PM 32.6000 -78.1633 North 425 489 41,000  Level Jacksonville Center
11:31PM 32.7164 -78.1472 North 420 483 41,000  Level Jacksonville Center
11:32PM 32.8344 -78.1239 North 420 483 41,000  Level Jacksonville Center
11:33PM 32.9486 -78.1053 North 420 483 41,000 -60 Level Jacksonville Center
11:35PM 33.2139 -78.0661 North 438 504 40,900  Descending Washington Center
11:36PM 33.3269 -78.0444 North 425 489 41,000  Climbing Washington Center
11:37PM 33.4461 -78.0281 North 420 483 41,000  Level Washington Center
11:38PM 33.5614 -78.0064 North 420 483 41,000  Level Washington Center
11:39PM 33.6806 -77.9875 North 425 489 41,000  Level Washington Center
11:40PM 33.7978 -77.9683 North 425 489 41,000  Level Washington Center
11:41PM 33.9086 -77.9489 North 431 496 41,000  Level Washington Center
11:42PM 34.0281 -77.9297 North 436 502 41,000  Level Washington Center
11:43PM 34.1453 -77.9081 North 431 496 41,000  Level Washington Center
11:44PM 34.2644 -77.8886 North 431 496 41,000  Level Washington Center
11:45PM 34.3839 -77.8619 10° North 431 496 41,000  Level Washington Center
11:46PM 34.4978 -77.7969 25° Northeast 431 496 41,000  Level Washington Center
11:47PM 34.6117 -77.7319 25° Northeast 440 506 41,000  Level Washington Center
11:48PM 34.7233 -77.6667 26° Northeast 440 506 41,000  Level Washington Center
11:49PM 34.8478 -77.5939 26° Northeast 440 506 41,000  Level Washington Center
11:50PM 34.9614 -77.5308 24° Northeast 440 506 41,000  Level Washington Center
11:51PM 35.0753 -77.4650 25° Northeast 440 506 41,000  Level Washington Center
11:52PM 35.1867 -77.4014 25° Northeast 446 513 41,000  Level Washington Center
11:53PM 35.3025 -77.3353 25° Northeast 446 513 41,000  Level Washington Center
11:54PM 35.4161 -77.2692 25° Northeast 446 513 41,000  Level Washington Center
11:55PM 35.5297 -77.2050 25° Northeast 446 513 41,000  Level Washington Center
11:56PM 35.6453 -77.1383 25° Northeast 446 513 41,000  Level Washington Center
11:57PM 35.7589 -77.0714 26° Northeast 446 513 41,000  Level Washington Center
11:58PM 35.8722 -77.0069 25° Northeast 446 513 41,000  Level Washington Center
11:59PM 35.9878 -76.9372 26° Northeast 446 513 41,000  Level Washington Center
12:00AM 36.1033 -76.8722 24° Northeast 446 513 41,000  Level Washington Center
12:01AM 36.2208 -76.8022 26° Northeast 446 513 41,000  Level Washington Center
12:02AM 36.3322 -76.7367 25° Northeast 446 513 41,000  Level Washington Center
12:03AM 36.4494 -76.6686 25° Northeast 446 513 41,000  Level Washington Center
12:04AM 36.5669 -76.6006 25° Northeast 446 513 41,000  Level Washington Center
12:05AM 36.6844 -76.5322 25° Northeast 446 513 41,000  Level Washington Center
12:06AM 36.7872 -76.4633 28° Northeast 446 513 41,000  Level Washington Center
12:07AM 36.9169 -76.3869 25° Northeast 446 513 41,000  Level Washington Center
12:08AM 37.0322 -76.3178 26° Northeast 446 513 41,000  Level Washington Center
12:09AM 37.1494 -76.2458 26° Northeast 446 513 41,000  Level Washington Center
12:10AM 37.2706 -76.1869 21° North 446 513 41,000  Level Washington Center
12:11AM 37.3647 -76.1589 13° North 446 513 41,000  Level Washington Center
12:12AM 37.5025 -76.1181 13° North 446 513 41,000  Level Washington Center
12:13AM 37.6258 -76.0794 14° North 452 520 41,000  Level Washington Center
12:14AM 37.7489 -76.0383 15° North 452 520 41,000  Level Washington Center
12:15AM 37.8825 -75.9892 16° North 446 513 41,000  Level Washington Center
12:16AM 38.0058 -75.9503 14° North 451 519 41,000  Level Washington Center
12:17AM 38.1164 -75.9136 15° North 451 519 41,000  Level Washington Center
12:18AM 38.2417 -75.8719 15° North 451 519 41,000  Level Washington Center
12:19AM 38.3647 -75.8300 15° North 451 519 41,000  Level Washington Center
12:20AM 38.4919 -75.7933 13° North 456 525 41,000  Level Washington Center
12:21AM 38.6172 -75.7511 15° North 456 525 41,000  Level Washington Center
12:22AM 38.7444 -75.7061 15° North 456 525 41,000  Level Washington Center
12:23AM 38.8717 -75.6689 13° North 461 531 41,000  Level Washington Center
12:24AM 38.9967 -75.6236 16° North 461 531 41,000  Level Washington Center
12:26AM 39.2583 -75.5383 14° North 467 537 41,000  Level New York Center
12:27AM 39.3872 -75.4933 15° North 472 543 41,000  Level New York Center
12:28AM 39.5119 -75.4506 15° North 477 549 41,000  Level New York Center
12:29AM 39.6431 -75.4081 14° North 477 549 41,000  Level New York Center
12:30AM 39.7464 -75.3717 15° North 477 549 41,000  Level New York Center
12:31AM 39.8903 -75.3214 15° North 477 549 41,000  Level New York Center
12:32AM 40.0211 -75.2758 15° North 477 549 41,000  Level New York Center
12:33AM 40.1461 -75.2297 16° North 477 549 41,000  Level New York Center
12:34AM 40.2769 -75.1836 15° North 477 549 41,000  Level New York Center
12:35AM 40.4078 -75.1375 15° North 477 549 41,000  Level New York Center
12:38AM 40.6969 -75.0325 15° North 485 558 41,000  Level Boston Center
12:39AM 40.8253 -74.9856 15° North 485 558 41,000  Level Boston Center
12:40AM 40.9575 -74.9383 15° North 485 558 41,000  Level Boston Center
12:41AM 41.0900 -74.8939 14° North 480 552 41,000  Level Boston Center
12:42AM 41.2222 -74.8439 16° North 480 552 41,000  Level Boston Center
12:43AM 41.3547 -74.7964 15° North 485 558 41,000  Level Boston Center
12:44AM 41.4931 -74.7486 15° North 485 558 41,000  Level Boston Center
12:45AM 41.5939 -74.7081 17° North 485 558 41,000  Level Boston Center
12:46AM 41.7536 -74.6497 15° North 491 565 41,000  Level Boston Center
12:47AM 41.8858 -74.6014 15° North 491 565 41,000  Level Boston Center
12:48AM 42.0200 -74.5556 14° North 491 565 41,000  Level Boston Center
12:49AM 42.1650 -74.5044 15° North 491 565 41,000  Level Boston Center
12:50AM 42.2969 -74.4583 14° North 491 565 41,000  Level Boston Center
12:51AM 42.4333 -74.4064 16° North 496 571 41,000  Level Boston Center
12:52AM 42.5675 -74.3572 15° North 496 571 41,000  Level Boston Center
12:53AM 42.6978 -74.3047 16° North 496 571 41,000  Level Boston Center
12:54AM 42.8319 -74.2492 17° North 496 571 41,000  Level Boston Center
12:55AM 42.9683 -74.1992 15° North 496 571 41,000  Level Boston Center
12:56AM 43.1319 -74.1358 16° North 496 571 41,000  Level Boston Center
12:57AM 43.2869 -74.0744 16° North 509 586 41,000  Level Boston Center
12:58AM 43.4378 -74.0183 15° North 509 586 41,000 -660 Level Boston Center
12:59AM 43.5739 -73.9647 16° North 509 586 39,700 -2,100 Descending Boston Center
01:00AM 43.7058 -73.9106 17° North 518 596 36,900 -2,880 Descending Boston Center
01:01AM 43.8483 -73.8536 16° North 529 609 34,000 -3,120 Descending Boston Center
01:02AM 44.0158 -73.7939 14° North 548 631 30,700 -3,180 Descending Boston Center
01:03AM 44.1625 -73.7336 16° North 554 638 27,700 -3,000 Descending Boston Center
01:04AM 44.3069 -73.6731 17° North 548 631 24,800 -2,820 Descending Boston Center
01:05AM 44.4492 -73.6178 16° North 538 619 22,100 -2,700 Descending Boston Center
01:06AM 44.5831 -73.5650 16° North 513 590 19,500 -2,520 Descending Boston Center
01:07AM 44.7061 -73.5267 12° North 478 550 17,100 -2,280 Descending Boston Center
01:08AM 44.8186 -73.5375 356° North 432 497 15,000 -2,040 Descending Boston Center
01:09AM 44.9247 -73.5483 356° North 402 463 13,100 -2,100 Descending Boston Center
01:09AM 44.9667 -73.5500 358° North 370 426 12,000 -1,680 Descending Montreal Center
01:10AM 45.0500 -73.5500 360° North 310 357 10,700 -1,500 Descending Montreal Center
01:11AM 45.1333 -73.5167 16° North 310 357 9,100 -1,440 Descending Montreal Center
01:12AM 45.2167 -73.5167 360° North 300 345 7,900 -1,140 Descending Montreal Center
01:13AM 45.3000 -73.4833 16° North 290 334 6,900 -1,200 Descending Montreal Center
01:14AM 45.3833 -73.4833 360° North 260 299 5,500 -1,260 Descending Montreal Center
01:15AM 45.4500 -73.4833 360° North 240 276 4,400 -780 Descending Montreal Center
01:16AM 45.5000 -73.4500 25° Northeast 210 242 4,000 -600 Descending Montreal Center
01:17AM 45.5500 -73.4833 335° Northwest 170 196 3,200 -540 Descending Montreal Center
01:18AM 45.5833 -73.5333 314° West 160 184 3,000 -120 Descending Montreal Center
01:19AM 45.5833 -73.5667 270° West 130 150 3,000 -120 Level Montreal Center
01:20AM 45.5667 -73.6000 234° Southwest 110 127 2,800 -420 Descending Montreal Center
01:21AM 45.5500 -73.6167 215° Southwest 100 115 2,200 -600 Descending Montreal Center
01:22AM 45.5167 -73.6500 215° Southwest 100 115 1,600 -600 Descending Montreal Center
01:23AM 45.5000 -73.7000 245° Southwest 110 127 1,000 -600 Descending Montreal Center
01:24AM 45.4833 -73.7167 215° Southwest 100 115 500 -420 Descending Montreal Center
01:25AM 45.4667 -73.7500 235° Southwest 60 69 200 -180 Descending Montreal Center
01:26AM 45.4500 -73.7500 180° South 20 23 200  Level Montreal Center